x

Neah Bay, - 6nm North Of Cape Flattery, Wa (traffic Separation Lighted Buoy) (46087) Wave Buoy

4:50 - Sat 24th Sep 2016 All times are PDT. -7 hours from GMT.

  • Sig Wave height 6.2ft
  • Swell Direction
  • Peak Period 10s
  • Average Period 9s
  • Wind
    9mph, 11mph gusts
  • Sea Temp 56°f
  • Aire Temp 54°f
  • Sea Pressure 1026.7mb
  • Neah Bay, - 6nm North Of Cape Flattery, Wa     (traffic Separation Lighted Buoy)
  • Neah Bay, - 6nm North Of Cape Flattery, Wa     (traffic Separation Lighted Buoy)

More Historic Weather Station data

Upgrade to MSW Pro to gain access to the past 30 days of data for over 8000 Wavebouys and Weather Stations around the globe.

Join Pro

Comparision Forecast

View Surf forecast
   
sáb 09/24 4:50 6ft 10s 9s 9 11 mph 1026.7mb 56f 54f
4:20 5.5ft 11s 9s 7 9 mph 1027.2mb 56f 54f
3:50 5ft 11s 9s 7
mph
1027.5mb 56f 55f
3:20 5.5ft 11s 9s 7 9 mph 1027.4mb 56f 54f
2:50 5ft 11s 9s 7 9 mph 1027.6mb 56f 55f
2:20 5ft 11s 8s 7 9 mph 1027.5mb 56f 55f
1:50 5.5ft 11s 9s 7 9 mph 1027.9mb 56f 54f
1:20 5.5ft 11s 9s 9
mph
1028mb 56f 54f
12:50 5ft 11s 9s 9 11 mph 1028.3mb 56f 54f
12:20 5.5ft 12s 8s 9 11 mph 1028.1mb 56f 54f
11:50 6ft 12s 8s 11 13 mph 1028.3mb 56f 54f
11:20 5.5ft 12s 8s 9 11 mph 1028.4mb 56f 54f
10:50 5.5ft 12s 8s 9 11 mph 1028.4mb 55f 54f
10:20 5ft 12s 7s 4 9 mph 1028.6mb 55f 54f
9:50 6ft 11s 7s 4 7 mph 1028.2mb 55f 53f
9:20 6.5ft 12s 8s 7 9 mph 1027.6mb 55f 53f
8:50 6.5ft 12s 7s 7 9 mph 1027.2mb 54f 52f
8:20 7ft 11s 7s 7 9 mph 1026.8mb 53f 52f
7:50 7ft 12s 7s 9 11 mph 1026.1mb 52f 52f
7:20 7ft 11s 7s 4 7 mph 1026.2mb 52f 51f
6:50 7.5ft 11s 7s 7 9 mph 1026mb 51f 52f
6:20 7.5ft 11s 7s 9 11 mph 1025.6mb 51f 52f
5:50 8ft 10s 7s 4 9 mph 1025.4mb 51f 51f
5:20 8ft 9s 7s 4 7 mph 1025.3mb 52f 51f
4:50 8.5ft 9s 8s 4 7 mph 1025.3mb 54f 52f
4:20 9ft 11s 8s 9 11 mph 1024.5mb 55f 52f
3:50 9ft 10s 8s 9 13 mph 1024.5mb 55f 53f
3:20 9.5ft 11s 8s 11 16 mph 1024.3mb 55f 53f
2:50 10ft 11s 9s 11 13 mph 1024.7mb 55f 53f
2:20 9ft 11s 9s 9 11 mph 1024.3mb 55f 54f
1:20 9ft 11s 9s 11 13 mph 1023.6mb 55f 53f
12:50 10ft 11s 9s 9 11 mph 1023mb 55f 54f
12:20 8.5ft 11s 8s 7 9 mph 1022.6mb 55f 53f
vie 09/23 11:50 9ft 12s 8s 7 9 mph 1022.1mb 55f 53f
11:20 8ft 11s 8s 4 7 mph 1021.8mb 55f 53f
10:50 8ft 10s 8s 7
mph
1021.6mb 55f 53f
10:20 8.5ft 11s 9s 9 11 mph 1021.2mb 55f 54f
9:50 8ft 12s 8s 11 13 mph 1021mb 55f 54f
9:20 9ft 12s 9s 11 13 mph 1020.3mb 55f 55f
8:50 8ft 11s 8s 11 13 mph 1020mb 55f 55f
8:20 7.5ft 10s 8s 13 18 mph 1019.3mb 55f 55f
7:50 7ft 11s 8s 13 18 mph 1018.6mb 56f 56f
7:20 7.5ft 10s 8s 13 16 mph 1018.2mb 56f 56f
6:50 7.5ft 9s 8s 13 16 mph 1017.5mb 56f 56f
6:20 7.5ft 11s 8s 16 18 mph 1017.4mb 56f 56f
5:50 8ft 9s 8s  -  2 mph 1016.5mb 56f 56f
5:20 8ft 11s 8s 7 9 mph 1015.8mb 56f 55f
4:50 8ft 12s 8s 9 13 mph 1015.6mb 56f 55f
4:20 7.5ft 12s 8s 9 11 mph 1014.9mb 55f 55f
3:50 8ft 11s 8s 4 7 mph 1013.8mb 55f 55f
3:20 7.5ft 12s 8s 13 16 mph 1013mb 55f 57f
2:50 7ft 11s 7s 13 16 mph 1012.6mb 55f 57f
2:20 7ft 11s 7s 16 18 mph 1012.5mb 54f 54f
1:50 8ft 11s 7s 13 18 mph 1012.3mb 53f 53f
1:20 7.5ft 9s 7s 16 18 mph 1012.4mb 53f 52f
12:50 7ft 8s 7s 16 18 mph 1012.2mb 52f 52f
12:20 11ft 11s 9s 13 18 mph 1012.6mb 50f 51f
11:50 12ft 11s 9s 13 18 mph 1012.4mb 50f 51f
11:20 9ft 10s 8s 11 16 mph 1012.4mb 50f 51f
10:50 10ft 11s 8s 13 18 mph 1012mb 50f 51f
10:20 8.5ft 10s 7s 13 20 mph 1012mb 50f 51f
9:50 6.5ft 11s 7s 16 22 mph 1011.9mb 50f 51f
9:20 6ft 11s 6s 22 27 mph 1011.3mb 50f 51f
8:50 5ft 11s 6s 25 29 mph 1011.3mb 50f 51f
8:20 5ft 11s 6s 27 31 mph 1011mb 50f 51f
7:50 5ft 11s 6s 25 29 mph 1011.3mb 51f 51f
7:20 3.5ft 11s 6s 22 25 mph 1011.6mb 51f 51f
6:50 3.5ft 11s 5s 20 25 mph 1011.9mb 51f 51f
6:20 3ft 11s 5s 20 25 mph 1012mb 51f 51f
5:50 3ft 11s 5s 22 27 mph 1012mb 51f 52f
5:20 2.5ft 12s 5s 20 25 mph 1012.8mb 51f 53f
4:50 2.5ft 11s 6s 20 22 mph 1013.4mb 51f 53f
4:20 2ft 12s 6s 20 22 mph 1013.9mb 51f 53f
3:50 2.5ft 12s 6s 18 20 mph 1014.7mb 51f 53f
3:20 2.5ft 12s 7s 16 18 mph 1015.4mb 51f 53f
2:50 2.5ft 12s 7s 13 16 mph 1015.5mb 51f 54f
2:20 2.5ft 13s 6s 13 16 mph 1015.9mb 51f 53f
1:50 2.5ft 7s 7s 13 16 mph 1016.1mb 51f 53f
1:20 2.5ft 14s 7s 11 13 mph 1016.2mb 51f 53f
12:50 2.5ft 8s 7s 9 11 mph 1016mb 51f 53f
12:20 2.5ft 8s 6s 11 13 mph 1016mb 51f 53f
jue 09/22 11:50 2.5ft 8s 6s 11
mph
1016mb 52f 53f
11:20 3ft 8s 6s 9 11 mph 1016.3mb 52f 53f
10:50 2.5ft 7s 6s 9 11 mph 1016.8mb 52f 53f
10:20 3ft 8s 6s 7 9 mph 1016.8mb 52f 54f
9:50 3ft 6s 6s 7 9 mph 1016.8mb 52f 54f
9:20 3ft 6s 6s 7 9 mph 1016.8mb 52f 53f
8:50 3.5ft 6s 6s 4 7 mph 1017.6mb 53f 54f
8:20 3ft 6s 6s 2 7 mph 1017.4mb 53f 55f
7:50 3ft 8s 6s 2 4 mph 1017.5mb 52f 55f
7:20 3.5ft 8s 6s 4
mph
1017.3mb 52f 54f
6:50 3.5ft 8s 6s 4
mph
1017.5mb 51f 54f
6:20 3.5ft 8s 6s 7
mph
1017.6mb 52f 54f
5:50 3ft 8s 6s 2 4 mph 1017.9mb 52f 54f
5:20 4ft 7s 5s  -  2 mph 1017.7mb 52f 53f
4:50 4.5ft 6s 6s  -  2 mph 1017.6mb 52f 54f
4:20 4.5ft 7s 6s  -  mph 1017.6mb 52f 54f
3:50 4ft 7s 6s  -  2 mph 1017.8mb 52f 54f
3:20 4ft 7s 6s 4 7 mph 1018mb 52f 53f
2:50 4.5ft 6s 6s 7 9 mph 1017.9mb 52f 53f
2:20 5ft 9s 7s 9 11 mph 1017.9mb 53f 54f
1:50 4.5ft 7s 6s  -  2 mph 1017.8mb 52f 53f
1:20 4.5ft 7s 6s  -  2 mph 1017.8mb 52f 53f
12:50 5ft 9s 7s 2 4 mph 1017.7mb 52f 53f
12:20 4.5ft 7s 6s 2 4 mph 1017.9mb 52f 53f
11:50 4.5ft 8s 6s 9 11 mph 1017.7mb 52f 53f
11:20 5ft 7s 6s  -  2 mph 1017.4mb 52f 53f
10:50 4.5ft 8s 6s  -  2 mph 1017.1mb 52f 53f
10:20 4ft 7s 6s 2
mph
1016.8mb 52f 52f
9:50 4.5ft 7s 6s  -  2 mph 1016.7mb 52f 52f
9:20 4.5ft 9s 6s 2
mph
1016.4mb 52f 51f
8:50 4.5ft 9s 6s 2 4 mph 1016.4mb 52f 51f
8:20 4.5ft 7s 6s 4
mph
1016.2mb 52f 51f
7:50 4.5ft 8s 6s 2 4 mph 1016mb 52f 51f
7:20 4.5ft 8s 6s 4
mph
1015.8mb 52f 52f
6:50 4.5ft 7s  -  7 11 mph 1015.7mb 52f 52f
6:20 5ft 8s 6s 9
mph
1015.1mb 52f 52f
5:50 5ft 8s 6s 4 7 mph 1014.8mb 52f 51f
5:20 5ft 9s 6s 4 7 mph 1014.8mb 52f 51f
4:50 5ft 9s 6s 7 9 mph 1014.8mb 52f 51f
4:20 5ft 9s 6s 9 11 mph 1014.8mb 52f 52f
3:50 4.5ft 10s 6s 7 9 mph 1014.7mb 52f 53f
3:20 4.5ft 10s 6s 9 13 mph 1014.7mb 52f 53f
2:50 4.5ft 9s 6s 11 13 mph 1014.8mb 52f 53f
2:20 4.5ft 9s 6s 7 9 mph 1014.6mb 52f 53f
1:50 4.5ft 10s 7s 2 4 mph 1014.6mb 52f 53f
1:20 4.5ft 10s 7s 4
mph
1014.6mb 52f 52f
12:50 4.5ft 10s 7s 2 4 mph 1014.6mb 52f 52f
12:20 4.5ft 10s 7s 4
mph
1014.5mb 53f 53f
mié 09/21 11:50 4.5ft 10s 7s 4 7 mph 1014.6mb 53f 53f
11:20 4.5ft 10s 7s 2 4 mph 1014.7mb 53f 53f
10:50 4.5ft 9s 7s  -  2 mph 1014.8mb 53f 53f
10:20 4.5ft 8s 7s 4 7 mph 1014.8mb 53f 53f
9:50 4.5ft 8s 7s 4 7 mph 1014.9mb 53f 53f
9:20 4.5ft 8s 7s 4
mph
1014.8mb 53f 53f
8:50 4.5ft 8s 7s  -  2 mph 1014.8mb 53f 54f
8:20 4ft 10s 6s 4
mph
1014.7mb 54f 55f
7:50 4.5ft 9s 7s 4
mph
1014.9mb 54f 55f
7:20 4.5ft 10s 7s 7
mph
1015mb 54f 55f
6:50 5ft 9s 7s 4 7 mph 1015.1mb 54f 55f
6:20 5ft 10s 7s 4 7 mph 1015.4mb 55f 56f
5:50 5ft 10s 7s 4 7 mph 1015.6mb 55f 57f
5:20 5ft 10s 7s 4
mph
1015.9mb 54f 57f
4:50 5ft 10s 7s 2 4 mph 1016.1mb 54f 58f
4:20 5ft 8s 7s 4
mph
1016.4mb 54f 56f
3:50 4.5ft 11s 7s 4
mph
1016.5mb 54f 55f
3:20 5ft 10s 7s 4
mph
1016.8mb 54f 55f
2:50 5ft 11s 7s 2 4 mph 1017.2mb 54f 54f
2:20 5ft 11s 7s 2 4 mph 1017.5mb 53f 54f
1:50 5ft 11s 7s 2 4 mph 1017.9mb 53f 54f
1:20 4.5ft 10s 8s 4 7 mph 1018.2mb 53f 54f
12:50 4.5ft 11s 8s 2 4 mph 1018.6mb 53f 54f
12:20 4.5ft 11s 8s 4 7 mph 1018.7mb 53f 54f
11:50 4.5ft 11s 8s 4 7 mph 1019mb 52f 53f
11:20 4.5ft 11s 8s 4 7 mph 1019.1mb 52f 53f
10:50 4.5ft 11s 8s 4 7 mph 1019.2mb 52f 53f
10:20 4.5ft 9s 8s 11 13 mph 1019.2mb 52f 53f
9:50 5ft 11s 8s 9 11 mph 1019.1mb 52f 53f
9:20 5ft 11s 8s 11 13 mph 1019.2mb 52f 52f
8:50 5ft 10s 8s 11 13 mph 1019.4mb 52f 51f
8:20 4.5ft 9s 7s 9 11 mph 1019.4mb 52f 52f
7:50 4.5ft 10s 8s 9 11 mph 1019.3mb 53f 52f
7:20 5ft 10s 7s 13 18 mph 1019.2mb 53f 52f
6:50 5ft 10s 7s 11 13 mph 1019.3mb 53f 52f
6:20 5.5ft 11s 8s 13 18 mph 1019.3mb 53f 52f
5:50 6ft 11s 8s 9 13 mph 1019.2mb 53f 52f
5:20 6ft 11s 8s 13 16 mph 1019.3mb 52f 52f
4:50 6.5ft 10s 8s 7 9 mph 1019.4mb 52f 52f
4:20 5.5ft 10s 8s 4 7 mph 1019.5mb 52f 52f
3:50 6ft 10s 8s 7 9 mph 1019.6mb 52f 52f
3:20 6ft 11s 8s 7 9 mph 1019.5mb 52f 52f
2:50 5ft 11s 8s 7 9 mph 1019.5mb 53f 52f
2:20 5.5ft 11s 8s 7 9 mph 1019.6mb 52f 52f
1:50 6ft 10s 9s 7 11 mph 1019.7mb 52f 52f
1:20 6ft 11s 9s 11 13 mph 1019.8mb 52f 53f
12:50 5.5ft 11s 9s 11 16 mph 1019.9mb 53f 53f